createdAt,value
2017-11-27T00:00:56.858Z,8.20
2017-11-27T00:01:56.815Z,7.30
2017-11-27T00:02:56.783Z,8.70
2017-11-27T00:03:56.738Z,8.40
2017-11-27T00:04:56.692Z,7.50
2017-11-27T00:05:56.663Z,8.30
2017-11-27T00:06:56.613Z,8.50
2017-11-27T00:07:56.570Z,8.50
2017-11-27T00:08:56.535Z,7.70
2017-11-27T00:09:56.490Z,7.70
2017-11-27T00:10:56.458Z,7.80
2017-11-27T00:11:56.408Z,8.10
2017-11-27T00:12:56.368Z,8.40
2017-11-27T00:13:56.331Z,10.00
2017-11-27T00:14:56.293Z,7.70
2017-11-27T00:15:56.258Z,7.20
2017-11-27T00:16:56.217Z,8.00
2017-11-27T00:17:56.168Z,7.50
2017-11-27T00:18:56.217Z,7.30
2017-11-27T00:19:56.166Z,7.90
2017-11-27T00:20:56.045Z,7.40
2017-11-27T00:21:56.005Z,7.70
2017-11-27T00:22:55.974Z,8.10
2017-11-27T00:23:55.924Z,8.10
2017-11-27T00:24:55.882Z,7.60
2017-11-27T00:25:55.841Z,7.30
2017-11-27T00:26:55.804Z,7.80
2017-11-27T00:27:55.764Z,7.20
2017-11-27T00:28:55.720Z,8.50
2017-11-27T00:29:55.678Z,8.00
2017-11-27T00:30:55.647Z,7.50
2017-11-27T00:31:55.600Z,7.70
2017-11-27T00:32:55.558Z,7.20
2017-11-27T00:33:55.518Z,8.00
2017-11-27T00:34:55.487Z,8.10
2017-11-27T00:35:55.445Z,7.70
2017-11-27T00:36:55.400Z,7.20
2017-11-27T00:37:55.374Z,8.00
2017-11-27T00:38:55.315Z,7.60
2017-11-27T00:39:55.312Z,8.00
2017-11-27T00:40:55.235Z,8.30
2017-11-27T00:41:55.196Z,7.50
2017-11-27T00:42:55.159Z,7.40
2017-11-27T00:43:55.114Z,8.10
2017-11-27T00:44:55.070Z,8.00
2017-11-27T00:45:55.037Z,7.80
2017-11-27T00:46:54.990Z,8.80
2017-11-27T00:47:54.952Z,7.50
2017-11-27T00:48:54.913Z,7.30
2017-11-27T00:49:54.869Z,8.60
2017-11-27T00:50:54.848Z,7.70
2017-11-27T00:51:54.792Z,7.90
2017-11-27T00:52:54.747Z,7.90
2017-11-27T00:53:54.710Z,7.90
2017-11-27T00:54:54.689Z,7.70
2017-11-27T00:55:54.627Z,7.70
2017-11-27T00:56:54.589Z,7.90
2017-11-27T00:57:54.566Z,8.40
2017-11-27T00:58:54.551Z,7.90
2017-11-27T00:59:54.465Z,8.40
2017-11-27T01:00:54.427Z,7.30
2017-11-27T01:01:54.406Z,8.90
2017-11-27T01:02:54.377Z,7.90
2017-11-27T01:03:54.316Z,8.70
2017-11-27T01:04:54.268Z,8.80
2017-11-27T01:05:54.230Z,8.10
2017-11-27T01:06:54.184Z,8.00
2017-11-27T01:07:54.147Z,8.50
2017-11-27T01:08:54.111Z,8.40
2017-11-27T01:09:54.077Z,9.10
2017-11-27T01:10:54.055Z,8.60
2017-11-27T01:11:53.987Z,8.70
2017-11-27T01:12:53.930Z,8.80
2017-11-27T01:13:53.898Z,8.30
2017-11-27T01:14:53.881Z,8.20
2017-11-27T01:15:53.852Z,9.10
2017-11-27T01:16:53.794Z,8.70
2017-11-27T01:17:53.760Z,8.70
2017-11-27T01:18:53.712Z,9.40
2017-11-27T01:19:53.657Z,8.60
2017-11-27T01:20:53.613Z,9.20
2017-11-27T01:21:53.624Z,8.60
2017-11-27T01:22:53.536Z,8.90
2017-11-27T01:23:53.504Z,8.90
2017-11-27T01:24:53.457Z,8.50
2017-11-27T01:25:53.411Z,8.30
2017-11-27T01:26:53.370Z,8.90
2017-11-27T01:27:53.335Z,8.80
2017-11-27T01:28:53.298Z,8.40
2017-11-27T01:29:53.252Z,8.20
2017-11-27T01:30:53.216Z,8.80
2017-11-27T01:31:53.197Z,8.40
2017-11-27T01:32:53.126Z,7.50
2017-11-27T01:33:53.085Z,8.30
2017-11-27T01:34:53.056Z,8.20
2017-11-27T01:35:53.004Z,8.10
2017-11-27T01:36:52.966Z,8.40
2017-11-27T01:37:52.922Z,7.40
2017-11-27T01:38:52.882Z,8.40
2017-11-27T01:39:52.842Z,8.30
2017-11-27T01:40:52.804Z,8.90
2017-11-27T01:41:52.765Z,8.50
2017-11-27T01:42:52.721Z,8.40
2017-11-27T01:43:52.683Z,8.20
2017-11-27T01:44:52.642Z,7.90
2017-11-27T01:45:52.599Z,8.20
2017-11-27T01:46:52.565Z,8.70
2017-11-27T01:47:52.519Z,8.70
2017-11-27T01:48:52.484Z,8.30
2017-11-27T01:49:52.443Z,7.90
2017-11-27T01:50:52.401Z,8.40
2017-11-27T01:51:52.359Z,8.60
2017-11-27T01:52:52.331Z,8.30
2017-11-27T01:53:52.276Z,7.60
2017-11-27T01:54:52.241Z,8.20
2017-11-27T01:55:52.194Z,8.60
2017-11-27T01:56:52.181Z,7.80
2017-11-27T01:57:52.114Z,8.20
2017-11-27T01:58:52.076Z,7.80
2017-11-27T01:59:52.037Z,7.80
2017-11-27T02:00:51.993Z,8.20
2017-11-27T02:01:51.954Z,7.60
2017-11-27T02:02:51.921Z,8.60
2017-11-27T02:03:51.876Z,8.10
2017-11-27T02:04:51.830Z,8.80
2017-11-27T02:05:51.810Z,8.00
2017-11-27T02:06:51.755Z,9.00
2017-11-27T02:07:51.713Z,8.20
2017-11-27T02:08:51.670Z,8.50
2017-11-27T02:09:51.627Z,7.40
2017-11-27T02:10:51.622Z,8.00
2017-11-27T02:11:51.548Z,7.50
2017-11-27T02:12:51.506Z,7.80
2017-11-27T02:13:51.476Z,8.80
2017-11-27T02:14:51.426Z,8.00
2017-11-27T02:15:51.389Z,7.50
2017-11-27T02:16:51.346Z,8.10
2017-11-27T02:17:51.311Z,7.90
2017-11-27T02:18:51.264Z,8.00
2017-11-27T02:19:51.229Z,8.10
2017-11-27T02:20:51.189Z,7.70
2017-11-27T02:21:51.148Z,7.60
2017-11-27T02:22:51.105Z,8.40
2017-11-27T02:23:51.061Z,8.40
2017-11-27T02:24:51.021Z,7.80
2017-11-27T02:25:50.981Z,7.70
2017-11-27T02:26:50.939Z,8.10
2017-11-27T02:27:50.900Z,8.20
2017-11-27T02:28:50.854Z,7.60
2017-11-27T02:29:50.830Z,7.90
2017-11-27T02:30:50.780Z,7.60
2017-11-27T02:31:50.735Z,7.70
2017-11-27T02:32:50.691Z,8.20
2017-11-27T02:33:50.657Z,7.50
2017-11-27T02:34:50.624Z,8.30
2017-11-27T02:35:50.573Z,7.50
2017-11-27T02:36:50.533Z,8.00
2017-11-27T02:37:50.496Z,7.20
2017-11-27T02:38:50.455Z,7.90
2017-11-27T02:39:50.420Z,7.70
2017-11-27T02:40:50.370Z,7.60
2017-11-27T02:41:50.330Z,8.00
2017-11-27T02:42:50.293Z,7.60
2017-11-27T02:43:50.257Z,7.40
2017-11-27T02:44:50.207Z,7.60
2017-11-27T02:45:50.169Z,7.60
2017-11-27T02:46:50.130Z,7.10
2017-11-27T02:47:50.100Z,6.90
2017-11-27T02:48:50.045Z,7.60
2017-11-27T02:49:50.005Z,7.40
2017-11-27T02:50:49.972Z,7.70
2017-11-27T02:51:49.926Z,8.20
2017-11-27T02:52:49.880Z,7.10
2017-11-27T02:53:49.842Z,8.20
2017-11-27T02:54:49.801Z,8.10
2017-11-27T02:55:49.767Z,8.30
2017-11-27T02:56:49.729Z,7.90
2017-11-27T02:57:49.680Z,8.40
2017-11-27T02:58:49.641Z,7.70
2017-11-27T02:59:49.609Z,7.70
2017-11-27T03:00:49.556Z,8.00
2017-11-27T03:01:49.519Z,7.70
2017-11-27T03:02:49.478Z,7.90
2017-11-27T03:03:49.439Z,7.70
2017-11-27T03:04:49.403Z,7.90
2017-11-27T03:05:49.358Z,7.50
2017-11-27T03:06:49.316Z,6.90
2017-11-27T03:07:49.296Z,7.90
2017-11-27T03:08:49.245Z,7.50
2017-11-27T03:09:49.193Z,7.50
2017-11-27T03:10:49.172Z,7.30
2017-11-27T03:11:49.113Z,7.50
2017-11-27T03:12:49.074Z,7.60
2017-11-27T03:13:49.030Z,6.90
2017-11-27T03:14:48.991Z,7.60
2017-11-27T03:15:48.965Z,7.60
2017-11-27T03:16:48.909Z,7.70
2017-11-27T03:17:48.877Z,7.70
2017-11-27T03:18:48.840Z,7.10
2017-11-27T03:19:48.787Z,7.60
2017-11-27T03:20:48.744Z,7.20
2017-11-27T03:21:48.706Z,6.80
2017-11-27T03:22:48.665Z,7.30
2017-11-27T03:23:48.626Z,6.40
2017-11-27T03:24:48.612Z,7.20
2017-11-27T03:25:48.552Z,7.20
2017-11-27T03:26:48.503Z,6.80
2017-11-27T03:27:48.471Z,7.30
2017-11-27T03:28:48.424Z,7.40
2017-11-27T03:29:48.385Z,6.90
2017-11-27T03:30:48.377Z,7.20
2017-11-27T03:31:48.352Z,7.40
2017-11-27T03:32:48.261Z,7.60
2017-11-27T03:33:48.225Z,6.90
2017-11-27T03:34:48.228Z,6.70
2017-11-27T03:35:48.156Z,7.10
2017-11-27T03:36:48.191Z,7.20
2017-11-27T03:37:48.065Z,7.30
2017-11-27T03:38:48.024Z,7.30
2017-11-27T03:39:47.981Z,7.20
2017-11-27T03:40:47.933Z,6.70
2017-11-27T03:41:47.894Z,7.60
2017-11-27T03:42:47.904Z,6.90
2017-11-27T03:43:47.828Z,6.80
2017-11-27T03:44:47.780Z,7.50
2017-11-27T03:45:47.735Z,6.70
2017-11-27T03:46:47.697Z,7.50
2017-11-27T03:47:47.650Z,6.90
2017-11-27T03:48:47.611Z,6.80
2017-11-27T03:49:47.586Z,7.00
2017-11-27T03:50:47.540Z,6.80
2017-11-27T03:51:47.500Z,7.00
2017-11-27T03:52:47.477Z,7.40
2017-11-27T03:53:47.425Z,6.40
2017-11-27T03:54:47.412Z,6.80
2017-11-27T03:55:47.449Z,6.60
2017-11-27T03:56:47.286Z,6.80
2017-11-27T03:57:47.271Z,6.60
2017-11-27T03:58:47.207Z,7.20
2017-11-27T03:59:47.173Z,6.10
2017-11-27T04:00:47.825Z,6.80
2017-11-27T04:01:47.081Z,6.20
2017-11-27T04:02:47.039Z,6.70
2017-11-27T04:03:47.001Z,6.30
2017-11-27T04:04:46.960Z,6.10
2017-11-27T04:05:46.927Z,7.10
2017-11-27T04:06:46.883Z,6.20
2017-11-27T04:07:46.838Z,7.30
2017-11-27T04:08:46.793Z,6.50
2017-11-27T04:09:46.761Z,6.60
2017-11-27T04:10:46.713Z,6.80
2017-11-27T04:11:46.681Z,6.60
2017-11-27T04:12:46.640Z,6.20
2017-11-27T04:13:46.592Z,6.80
2017-11-27T04:14:46.549Z,6.60
2017-11-27T04:15:46.511Z,6.30
2017-11-27T04:16:46.481Z,6.20
2017-11-27T04:17:46.431Z,7.30
2017-11-27T04:18:46.391Z,6.10
2017-11-27T04:19:46.350Z,6.80
2017-11-27T04:20:46.311Z,6.60
2017-11-27T04:21:46.270Z,6.70
2017-11-27T04:22:46.227Z,6.50
2017-11-27T04:23:46.183Z,6.60
2017-11-27T04:24:46.144Z,6.40
2017-11-27T04:25:46.118Z,6.00
2017-11-27T04:26:46.073Z,6.50
2017-11-27T04:27:46.029Z,6.80
2017-11-27T04:28:45.979Z,6.50
2017-11-27T04:29:45.941Z,6.30
2017-11-27T04:30:45.897Z,6.20
2017-11-27T04:31:45.862Z,6.40
2017-11-27T04:32:45.822Z,6.20
2017-11-27T04:33:45.776Z,5.90
2017-11-27T04:34:45.735Z,6.80
2017-11-27T04:35:45.696Z,6.50
2017-11-27T04:36:45.660Z,7.80
2017-11-27T04:37:45.622Z,6.80
2017-11-27T04:38:45.580Z,6.50
2017-11-27T04:39:45.532Z,6.30
2017-11-27T04:40:45.491Z,6.40
2017-11-27T04:41:45.449Z,6.20
2017-11-27T04:42:45.425Z,6.30
2017-11-27T04:43:45.388Z,6.30
2017-11-27T04:44:45.326Z,6.30
2017-11-27T04:45:45.289Z,7.30
2017-11-27T04:46:45.245Z,7.10
2017-11-27T04:47:45.211Z,6.80
2017-11-27T04:48:45.163Z,7.40
2017-11-27T04:49:45.126Z,7.00
2017-11-27T04:50:45.091Z,6.90
2017-11-27T04:51:45.043Z,7.50
2017-11-27T04:52:45.000Z,7.60
2017-11-27T04:53:44.962Z,7.50
2017-11-27T04:54:44.924Z,7.40
2017-11-27T04:55:44.881Z,7.80
2017-11-27T04:56:44.837Z,7.30
2017-11-27T04:57:44.800Z,7.90
2017-11-27T04:58:44.761Z,7.40
2017-11-27T04:59:44.717Z,7.20
2017-11-27T05:00:44.677Z,6.90
2017-11-27T05:01:44.632Z,7.20
2017-11-27T05:02:44.595Z,7.70
2017-11-27T05:03:44.555Z,7.10
2017-11-27T05:04:44.521Z,7.10
2017-11-27T05:05:44.471Z,7.00
2017-11-27T05:06:44.432Z,6.90
2017-11-27T05:07:44.389Z,7.00
2017-11-27T05:08:44.345Z,7.60
2017-11-27T05:09:44.305Z,8.50
2017-11-27T05:10:44.272Z,8.30
2017-11-27T05:11:44.227Z,7.60
2017-11-27T05:12:44.187Z,7.50
2017-11-27T05:13:44.145Z,8.50
2017-11-27T05:14:44.101Z,7.50
2017-11-27T05:15:44.066Z,7.50
2017-11-27T05:16:44.017Z,6.40
2017-11-27T05:17:43.980Z,6.30
2017-11-27T05:18:43.938Z,6.60
2017-11-27T05:19:43.899Z,6.20
2017-11-27T05:20:43.864Z,6.20
2017-11-27T05:21:43.814Z,6.00
2017-11-27T05:22:43.780Z,6.10
2017-11-27T05:23:43.742Z,7.00
2017-11-27T05:24:43.693Z,6.80
2017-11-27T05:25:43.655Z,7.10
2017-11-27T05:26:44.241Z,6.30
2017-11-27T05:27:43.575Z,6.60
2017-11-27T05:28:43.528Z,6.90
2017-11-27T05:29:43.488Z,6.60
2017-11-27T05:30:43.451Z,6.70
2017-11-27T05:31:43.408Z,6.30
2017-11-27T05:32:43.367Z,6.80
2017-11-27T05:33:43.324Z,6.40
2017-11-27T05:34:43.288Z,7.00
2017-11-27T05:35:43.245Z,7.30
2017-11-27T05:36:43.203Z,6.50
2017-11-27T05:37:43.163Z,7.00
2017-11-27T05:38:43.128Z,6.70
2017-11-27T05:39:43.089Z,6.90
2017-11-27T05:40:43.055Z,7.60
2017-11-27T05:41:43.001Z,6.70
2017-11-27T05:42:42.967Z,6.60
2017-11-27T05:43:42.918Z,6.60
2017-11-27T05:44:42.878Z,6.60
2017-11-27T05:45:42.835Z,7.00
2017-11-27T05:46:42.797Z,6.30
2017-11-27T05:47:42.760Z,6.50
2017-11-27T05:48:42.714Z,6.50
2017-11-27T05:49:42.673Z,6.30
2017-11-27T05:50:42.647Z,6.60
2017-11-27T05:51:42.591Z,6.20
2017-11-27T05:52:42.564Z,6.20
2017-11-27T05:53:42.525Z,6.60
2017-11-27T05:54:42.500Z,6.00
2017-11-27T05:55:42.479Z,6.00
2017-11-27T05:56:42.390Z,6.30
2017-11-27T05:57:42.355Z,6.90
2017-11-27T05:58:42.305Z,7.40
2017-11-27T05:59:42.278Z,8.00
2017-11-27T06:00:42.280Z,10.80
2017-11-27T06:01:42.187Z,8.80
2017-11-27T06:02:42.159Z,6.90
2017-11-27T06:03:42.103Z,7.20
2017-11-27T06:04:42.092Z,7.50
2017-11-27T06:05:42.097Z,7.30
2017-11-27T06:06:42.006Z,7.70
2017-11-27T06:07:41.952Z,7.00
2017-11-27T06:08:41.914Z,7.90
2017-11-27T06:09:41.861Z,7.80
2017-11-27T06:10:41.820Z,8.20
2017-11-27T06:11:41.784Z,8.00
2017-11-27T06:12:41.799Z,8.20
2017-11-27T06:13:41.708Z,9.50
2017-11-27T06:14:41.667Z,8.10
2017-11-27T06:15:41.610Z,7.80
2017-11-27T06:16:41.569Z,7.50
2017-11-27T06:17:41.558Z,8.30
2017-11-27T06:18:41.526Z,8.70
2017-11-27T06:19:41.486Z,8.50
2017-11-27T06:20:41.397Z,7.80
2017-11-27T06:21:41.367Z,7.70
2017-11-27T06:22:41.350Z,8.40
2017-11-27T06:23:41.298Z,7.50
2017-11-27T06:24:41.273Z,7.70
2017-11-27T06:25:41.203Z,9.10
2017-11-27T06:26:41.161Z,8.80
2017-11-27T06:27:41.132Z,8.80
2017-11-27T06:28:41.070Z,8.20
2017-11-27T06:29:41.065Z,8.50
2017-11-27T06:30:41.852Z,8.10
2017-11-27T06:31:40.941Z,7.80
2017-11-27T06:32:40.900Z,9.20
2017-11-27T06:33:40.860Z,8.70
2017-11-27T06:34:40.820Z,9.00
2017-11-27T06:35:40.778Z,8.60
2017-11-27T06:36:40.737Z,8.10
2017-11-27T06:37:40.695Z,8.90
2017-11-27T06:38:40.658Z,9.00
2017-11-27T06:39:40.624Z,9.00
2017-11-27T06:40:40.570Z,9.40
2017-11-27T06:41:40.528Z,9.60
2017-11-27T06:42:40.491Z,9.70
2017-11-27T06:43:40.447Z,10.50
2017-11-27T06:44:40.440Z,10.70
2017-11-27T06:45:40.369Z,10.10
2017-11-27T06:46:40.327Z,9.10
2017-11-27T06:47:40.281Z,8.20
2017-11-27T06:48:40.252Z,10.80
2017-11-27T06:49:40.195Z,11.10
2017-11-27T06:50:40.156Z,9.80
2017-11-27T06:51:40.122Z,10.90
2017-11-27T06:52:40.076Z,10.60
2017-11-27T06:53:40.038Z,10.40
2017-11-27T06:54:39.989Z,9.90
2017-11-27T06:55:39.952Z,10.50
2017-11-27T06:56:39.905Z,9.70
2017-11-27T06:57:39.864Z,9.90
2017-11-27T06:58:39.825Z,10.10
2017-11-27T06:59:39.780Z,9.60
2017-11-27T07:00:39.755Z,10.00
2017-11-27T07:01:39.705Z,10.70
2017-11-27T07:02:39.654Z,10.20
2017-11-27T07:03:39.617Z,10.60
2017-11-27T07:04:39.587Z,11.10
2017-11-27T07:05:39.535Z,10.30
2017-11-27T07:06:39.488Z,10.20
2017-11-27T07:07:39.448Z,10.00
2017-11-27T07:08:39.406Z,9.90
2017-11-27T07:09:39.361Z,9.70
2017-11-27T07:10:39.326Z,9.80
2017-11-27T07:11:39.279Z,9.80
2017-11-27T07:12:39.254Z,10.70
2017-11-27T07:13:39.194Z,10.60
2017-11-27T07:14:39.156Z,11.10
2017-11-27T07:15:39.119Z,10.90
2017-11-27T07:16:39.067Z,10.30
2017-11-27T07:17:39.027Z,10.40
2017-11-27T07:18:38.985Z,9.60
2017-11-27T07:19:38.944Z,10.30
2017-11-27T07:20:38.902Z,10.00
2017-11-27T07:21:38.875Z,11.20
2017-11-27T07:22:38.821Z,10.10
2017-11-27T07:23:38.778Z,11.40
2017-11-27T07:24:38.736Z,10.50
2017-11-27T07:25:38.694Z,10.60
2017-11-27T07:26:38.675Z,9.80
2017-11-27T07:27:38.611Z,10.00
2017-11-27T07:28:38.573Z,11.00
2017-11-27T07:29:38.528Z,10.40
2017-11-27T07:30:38.485Z,10.80
2017-11-27T07:31:38.448Z,10.60
2017-11-27T07:32:38.422Z,9.80
2017-11-27T07:33:38.360Z,10.20
2017-11-27T07:34:38.320Z,9.80
2017-11-27T07:35:38.276Z,10.60
2017-11-27T07:36:38.234Z,10.20
2017-11-27T07:37:38.193Z,10.20
2017-11-27T07:38:38.152Z,10.20
2017-11-27T07:39:38.114Z,10.20
2017-11-27T07:40:38.067Z,10.20
2017-11-27T07:41:38.028Z,10.10
2017-11-27T07:42:37.985Z,10.50
2017-11-27T07:43:37.946Z,9.40
2017-11-27T07:44:37.907Z,9.30
2017-11-27T07:45:37.861Z,9.40
2017-11-27T07:46:37.820Z,9.70
2017-11-27T07:47:37.778Z,9.80
2017-11-27T07:48:37.734Z,9.80
2017-11-27T07:49:37.694Z,9.80
2017-11-27T07:50:37.653Z,9.30
2017-11-27T07:51:37.613Z,8.80
2017-11-27T07:52:37.572Z,10.20
2017-11-27T07:53:37.530Z,9.90
2017-11-27T07:54:37.487Z,8.90
2017-11-27T07:55:37.455Z,9.00
2017-11-27T07:56:37.407Z,9.60
2017-11-27T07:57:37.365Z,9.70
2017-11-27T07:58:37.325Z,8.70
2017-11-27T07:59:37.288Z,9.40
2017-11-27T08:00:37.259Z,9.20
2017-11-27T08:01:37.200Z,9.80
2017-11-27T08:02:37.163Z,9.70
2017-11-27T08:03:37.118Z,8.90
2017-11-27T08:04:37.080Z,8.90
2017-11-27T08:05:37.035Z,9.80
2017-11-27T08:06:36.995Z,9.10
2017-11-27T08:07:36.958Z,10.50
2017-11-27T08:08:36.918Z,8.80
2017-11-27T08:09:36.872Z,9.00
2017-11-27T08:10:36.833Z,9.00
2017-11-27T08:11:36.787Z,9.10
2017-11-27T08:12:36.746Z,9.50
2017-11-27T08:13:36.709Z,8.80
2017-11-27T08:14:36.674Z,8.40
2017-11-27T08:15:36.627Z,9.00
2017-11-27T08:16:36.633Z,8.70
2017-11-27T08:17:36.598Z,8.50
2017-11-27T08:18:36.501Z,8.50
2017-11-27T08:19:36.482Z,8.60
2017-11-27T08:20:36.418Z,8.50
2017-11-27T08:21:36.380Z,8.30
2017-11-27T08:22:36.351Z,8.30
2017-11-27T08:23:36.300Z,8.80
2017-11-27T08:24:36.349Z,8.60
2017-11-27T08:25:36.217Z,8.80
2017-11-27T08:26:36.184Z,7.90
2017-11-27T08:27:36.169Z,8.30
2017-11-27T08:28:36.098Z,8.00
2017-11-27T08:29:36.077Z,8.40
2017-11-27T08:30:36.068Z,8.50
2017-11-27T08:31:35.988Z,8.00
2017-11-27T08:32:35.946Z,8.00
2017-11-27T08:33:35.902Z,7.80
2017-11-27T08:34:35.854Z,7.50
2017-11-27T08:35:35.805Z,7.40
2017-11-27T08:36:35.780Z,7.80
2017-11-27T08:37:35.724Z,7.60
2017-11-27T08:38:35.685Z,8.50
2017-11-27T08:39:35.664Z,7.60
2017-11-27T08:40:35.604Z,7.20
2017-11-27T08:41:35.560Z,7.60
2017-11-27T08:42:35.546Z,7.10
2017-11-27T08:43:35.499Z,6.70
2017-11-27T08:44:35.469Z,8.40
2017-11-27T08:45:35.413Z,8.70
2017-11-27T08:46:35.375Z,7.80
2017-11-27T08:47:35.333Z,8.00
2017-11-27T08:48:35.374Z,8.40
2017-11-27T08:49:35.243Z,7.70
2017-11-27T08:50:35.199Z,8.50
2017-11-27T08:51:35.206Z,7.60
2017-11-27T08:52:35.115Z,7.80
2017-11-27T08:53:35.076Z,7.80
2017-11-27T08:54:35.041Z,7.50
2017-11-27T08:55:35.086Z,7.50
2017-11-27T08:56:34.983Z,7.80
2017-11-27T08:57:34.920Z,7.90
2017-11-27T08:58:34.874Z,8.50
2017-11-27T08:59:35.380Z,8.20
2017-11-27T09:00:34.801Z,8.40
2017-11-27T09:01:34.752Z,8.10
2017-11-27T09:02:34.720Z,7.50
2017-11-27T09:03:34.686Z,7.70
2017-11-27T09:04:34.633Z,9.90
2017-11-27T09:05:34.595Z,8.30
2017-11-27T09:06:34.551Z,8.30
2017-11-27T09:07:34.509Z,7.90
2017-11-27T09:08:34.470Z,8.30
2017-11-27T09:09:34.431Z,7.60
2017-11-27T09:10:34.388Z,8.70
2017-11-27T09:11:34.350Z,7.70
2017-11-27T09:12:34.307Z,7.30
2017-11-27T09:13:34.264Z,8.60
2017-11-27T09:14:34.226Z,7.60
2017-11-27T09:15:34.191Z,7.40
2017-11-27T09:16:34.147Z,7.10
2017-11-27T09:17:34.131Z,6.80
2017-11-27T09:18:34.063Z,7.10
2017-11-27T09:19:34.024Z,7.60
2017-11-27T09:20:33.987Z,6.80
2017-11-27T09:21:33.971Z,7.00
2017-11-27T09:22:33.903Z,6.50
2017-11-27T09:23:33.867Z,7.20
2017-11-27T09:24:33.835Z,7.10
2017-11-27T09:25:33.791Z,7.10
2017-11-27T09:26:33.743Z,7.40
2017-11-27T09:27:33.710Z,8.10
2017-11-27T09:28:33.678Z,7.90
2017-11-27T09:29:33.623Z,7.50
2017-11-27T09:30:33.580Z,7.00
2017-11-27T09:31:33.540Z,7.30
2017-11-27T09:32:33.523Z,8.10
2017-11-27T09:33:33.462Z,8.80
2017-11-27T09:34:33.425Z,8.70
2017-11-27T09:35:33.381Z,8.70
2017-11-27T09:36:33.340Z,7.90
2017-11-27T09:37:33.300Z,6.90
2017-11-27T09:38:33.260Z,7.20
2017-11-27T09:39:33.221Z,7.50
2017-11-27T09:40:33.186Z,6.90
2017-11-27T09:41:33.145Z,6.30
2017-11-27T09:42:33.100Z,5.40
2017-11-27T09:43:33.094Z,6.10
2017-11-27T09:44:33.026Z,5.80
2017-11-27T09:45:32.978Z,6.00
2017-11-27T09:46:32.952Z,5.70
2017-11-27T09:47:32.907Z,5.80
2017-11-27T09:48:32.861Z,5.60
2017-11-27T09:49:32.819Z,5.40
2017-11-27T09:50:32.788Z,6.00
2017-11-27T09:51:32.740Z,5.90
2017-11-27T09:52:32.699Z,6.60
2017-11-27T09:53:32.657Z,5.90
2017-11-27T09:54:32.622Z,6.20
2017-11-27T09:55:32.588Z,5.40
2017-11-27T09:56:32.536Z,5.90
2017-11-27T09:57:32.507Z,5.80
2017-11-27T09:58:32.466Z,5.80
2017-11-27T09:59:32.421Z,5.70
2017-11-27T10:00:32.378Z,5.60
2017-11-27T10:01:32.336Z,5.60
2017-11-27T10:02:32.300Z,5.30
2017-11-27T10:03:32.260Z,5.40
2017-11-27T10:04:32.220Z,4.80
2017-11-27T10:05:32.176Z,5.20
2017-11-27T10:06:32.142Z,5.60
2017-11-27T10:07:32.097Z,5.60
2017-11-27T10:08:32.060Z,5.20
2017-11-27T10:09:32.036Z,5.70
2017-11-27T10:10:31.984Z,6.00
2017-11-27T10:11:31.936Z,5.80
2017-11-27T10:12:31.895Z,5.40
2017-11-27T10:13:31.861Z,6.00
2017-11-27T10:14:31.819Z,6.00
2017-11-27T10:15:31.777Z,5.30
2017-11-27T10:16:31.737Z,6.10
2017-11-27T10:17:31.698Z,6.00
2017-11-27T10:18:31.664Z,5.80
2017-11-27T10:19:31.621Z,5.90
2017-11-27T10:20:31.583Z,4.90
2017-11-27T10:21:31.539Z,6.20
2017-11-27T10:22:31.497Z,5.50
2017-11-27T10:23:31.462Z,5.20
2017-11-27T10:24:31.429Z,6.30
2017-11-27T10:25:31.395Z,5.10
2017-11-27T10:26:31.339Z,4.90
2017-11-27T10:27:31.345Z,5.20
2017-11-27T10:28:31.269Z,5.00
2017-11-27T10:29:31.221Z,5.80
2017-11-27T10:30:31.188Z,5.40
2017-11-27T10:31:31.142Z,5.40
2017-11-27T10:32:31.102Z,5.50
2017-11-27T10:33:31.064Z,5.00
2017-11-27T10:34:31.029Z,4.80
2017-11-27T10:35:30.990Z,4.90
2017-11-27T10:36:30.945Z,4.60
2017-11-27T10:37:30.908Z,5.20
2017-11-27T10:38:30.866Z,6.20
2017-11-27T10:39:30.825Z,5.10
2017-11-27T10:40:30.791Z,4.20
2017-11-27T10:41:30.754Z,4.40
2017-11-27T10:42:30.706Z,4.60
2017-11-27T10:43:30.666Z,5.00
2017-11-27T10:44:30.626Z,4.20
2017-11-27T10:45:30.586Z,5.20
2017-11-27T10:46:30.557Z,4.90
2017-11-27T10:47:30.515Z,4.60
2017-11-27T10:48:30.467Z,6.70
2017-11-27T10:49:30.693Z,4.20
2017-11-27T10:50:30.422Z,4.30
2017-11-27T10:51:30.352Z,6.30
2017-11-27T10:52:30.318Z,4.90
2017-11-27T10:53:30.282Z,4.70
2017-11-27T10:54:30.305Z,4.40
2017-11-27T10:55:30.282Z,4.60
2017-11-27T10:56:30.210Z,5.30
2017-11-27T10:57:30.206Z,6.60
2017-11-27T10:58:30.113Z,5.10
2017-11-27T10:59:30.061Z,4.60
2017-11-27T11:00:30.167Z,5.00
2017-11-27T11:01:30.011Z,4.40
2017-11-27T11:02:29.969Z,5.60
2017-11-27T11:03:29.883Z,4.90
2017-11-27T11:04:29.862Z,4.90
2017-11-27T11:05:29.801Z,4.20
2017-11-27T11:06:29.794Z,4.60
2017-11-27T11:07:29.739Z,3.80
2017-11-27T11:08:29.703Z,3.80
2017-11-27T11:09:29.656Z,4.20
2017-11-27T11:10:29.651Z,4.00
2017-11-27T11:11:29.569Z,3.90
2017-11-27T11:12:29.578Z,4.10
2017-11-27T11:13:29.553Z,4.00
2017-11-27T11:14:29.479Z,4.80
2017-11-27T11:15:29.413Z,5.50
2017-11-27T11:16:29.368Z,6.00
2017-11-27T11:17:29.338Z,6.10
2017-11-27T11:18:29.320Z,5.80
2017-11-27T11:19:29.280Z,5.20
2017-11-27T11:20:29.221Z,5.20
2017-11-27T11:21:29.199Z,4.80
2017-11-27T11:22:29.205Z,5.90
2017-11-27T11:23:29.102Z,8.80
2017-11-27T11:24:29.061Z,7.80
2017-11-27T11:25:29.022Z,4.80
2017-11-27T11:26:29.005Z,4.40
2017-11-27T11:27:28.967Z,4.30
2017-11-27T11:28:28.906Z,5.20
2017-11-27T11:29:28.892Z,4.40
2017-11-27T11:30:28.820Z,4.80
2017-11-27T11:31:28.784Z,4.60
2017-11-27T11:32:28.740Z,4.20
2017-11-27T11:33:28.701Z,4.30
2017-11-27T11:34:28.662Z,4.10
2017-11-27T11:35:28.622Z,4.20
2017-11-27T11:36:28.584Z,4.10
2017-11-27T11:37:28.548Z,4.40
2017-11-27T11:38:28.504Z,3.90
2017-11-27T11:39:28.472Z,3.80
2017-11-27T11:40:28.423Z,3.60
2017-11-27T11:41:28.384Z,3.80
2017-11-27T11:42:28.346Z,3.70
2017-11-27T11:43:28.343Z,3.60
2017-11-27T11:44:28.317Z,4.00
2017-11-27T11:45:28.265Z,4.20
2017-11-27T11:46:28.199Z,3.40
2017-11-27T11:47:28.147Z,4.20
2017-11-27T11:48:28.108Z,4.20
2017-11-27T11:49:28.074Z,3.70
2017-11-27T11:50:28.035Z,3.30
2017-11-27T11:51:27.994Z,4.50
2017-11-27T11:52:27.964Z,4.60
2017-11-27T11:53:27.911Z,3.70
2017-11-27T11:54:27.874Z,3.80
2017-11-27T11:55:27.858Z,4.30
2017-11-27T11:56:27.890Z,4.10
2017-11-27T11:57:27.765Z,4.20
2017-11-27T11:58:27.757Z,4.20
2017-11-27T11:59:27.705Z,3.70
2017-11-27T12:00:27.656Z,3.60
2017-11-27T12:01:27.611Z,3.80
2017-11-27T12:02:27.566Z,3.20
2017-11-27T12:03:27.521Z,4.40
2017-11-27T12:04:27.482Z,4.60
2017-11-27T12:05:27.523Z,4.00
2017-11-27T12:06:27.463Z,3.90
2017-11-27T12:07:27.360Z,4.50
2017-11-27T12:08:27.336Z,3.80
2017-11-27T12:09:27.301Z,3.80
2017-11-27T12:10:27.255Z,3.70
2017-11-27T12:11:27.216Z,3.40
2017-11-27T12:12:27.216Z,3.70
2017-11-27T12:13:27.149Z,3.30
2017-11-27T12:14:27.090Z,3.50
2017-11-27T12:15:27.058Z,3.30
2017-11-27T12:16:27.033Z,3.20
2017-11-27T12:17:27.004Z,3.10
2017-11-27T12:18:26.925Z,4.90
2017-11-27T12:19:26.957Z,3.50
2017-11-27T12:20:26.848Z,3.90
2017-11-27T12:21:26.811Z,3.30
2017-11-27T12:22:26.830Z,3.60
2017-11-27T12:23:26.729Z,3.60
2017-11-27T12:24:26.690Z,3.50
2017-11-27T12:25:26.719Z,3.00
2017-11-27T12:26:26.687Z,3.10
2017-11-27T12:27:26.587Z,3.00
2017-11-27T12:28:26.544Z,3.20
2017-11-27T12:29:26.496Z,3.20
2017-11-27T12:30:26.475Z,3.50
2017-11-27T12:31:26.415Z,3.40
2017-11-27T12:32:26.377Z,3.40
2017-11-27T12:33:26.336Z,3.90
2017-11-27T12:34:26.300Z,4.00
2017-11-27T12:35:26.258Z,4.40
2017-11-27T12:36:26.238Z,4.00
2017-11-27T12:37:26.207Z,3.60
2017-11-27T12:38:26.190Z,3.80
2017-11-27T12:39:26.107Z,4.60
2017-11-27T12:40:26.060Z,3.30
2017-11-27T12:41:26.020Z,3.40
2017-11-27T12:42:25.981Z,3.20
2017-11-27T12:43:25.964Z,4.40
2017-11-27T12:44:25.926Z,3.60
2017-11-27T12:45:25.864Z,3.20
2017-11-27T12:46:25.830Z,4.50
2017-11-27T12:47:25.780Z,3.00
2017-11-27T12:48:25.807Z,4.40
2017-11-27T12:49:25.702Z,3.20
2017-11-27T12:50:25.666Z,3.20
2017-11-27T12:51:25.625Z,3.00
2017-11-27T12:52:25.594Z,3.30
2017-11-27T12:53:25.548Z,3.30
2017-11-27T12:54:25.505Z,3.00
2017-11-27T12:55:25.474Z,3.20
2017-11-27T12:56:25.426Z,3.30
2017-11-27T12:57:25.392Z,3.00
2017-11-27T12:58:25.356Z,5.00
2017-11-27T12:59:25.361Z,4.50
2017-11-27T13:00:25.295Z,2.80
2017-11-27T13:01:25.239Z,2.80
2017-11-27T13:02:25.246Z,2.80
2017-11-27T13:03:25.157Z,3.20
2017-11-27T13:04:25.118Z,2.50
2017-11-27T13:05:25.073Z,3.10
2017-11-27T13:06:25.035Z,2.70
2017-11-27T13:07:24.996Z,2.90
2017-11-27T13:08:24.972Z,2.50
2017-11-27T13:09:24.921Z,2.50
2017-11-27T13:10:24.903Z,4.00
2017-11-27T13:11:24.836Z,3.00
2017-11-27T13:12:24.812Z,3.00
2017-11-27T13:13:24.769Z,3.30
2017-11-27T13:14:24.719Z,3.10
2017-11-27T13:15:24.680Z,2.80
2017-11-27T13:16:24.642Z,4.50